Flight Track Log - Related Links

Times and Time Zones

All times are in EST time to prevent confusion due to time zone crossing. See the N27XP flight status page for this flight to view local times or setup timezone preferences in your user account.

Time Position Orientation Groundspeed Altitude Reporting Facility
EST Latitude Longitude Course Direction KTS MPH feet Rate Location/Type
Fri 05:07:58 PM 34.9161 -82.2250 73° East 281 323 7,700  Level Atlanta Center
Fri 05:08:58 PM 34.9275 -82.1386 81° East 291 335 10,000 2,250 Climbing Atlanta Center
Fri 05:09:58 PM 34.9319 -82.0272 87° East 304 350 12,200 2,150 Climbing Atlanta Center
Fri 05:10:58 PM 34.9403 -81.9078 85° East 329 379 14,300 2,200 Climbing Atlanta Center
Fri 05:11:58 PM 34.9525 -81.7758 84° East 364 419 16,600 1,350 Climbing Atlanta Center
Fri 05:12:00 PM 34.9671 -81.8318 73° East  Level FlightAware Approximate
Fri 05:12:58 PM 34.9731 -81.6511 79° East 377 434 17,000  Level Atlanta Center
Fri 05:13:58 PM 34.9808 -81.5164 86° East 387 445 17,100 750 Climbing Atlanta Center
Fri 05:14:58 PM 34.9950 -81.3892 82° East 387 445 18,500 950 Climbing Atlanta Center
Fri 05:15:58 PM 35.0108 -81.2594 81° East 387 445 19,000 250 Climbing Atlanta Center
Fri 05:16:58 PM 35.0222 -81.1272 84° East 387 445 19,000  Level Atlanta Center
Fri 05:17:58 PM 35.0336 -80.9897 84° East 392 451 19,000  Level Atlanta Center
Fri 05:18:21 PM 35.0422 -80.9208 81° East 423 487 19,000 -800 Level Atlanta Center
Fri 05:18:58 PM 35.0503 -80.8292 84° East 412 474 18,200 -1,215 Descending Atlanta Center
Fri 05:19:40 PM 35.0603 -80.7300 83° East 436 502 17,400 -1,300 Descending Atlanta Center
Fri 05:19:58 PM 35.0633 -80.6867 85° East 422 486 16,900 -1,500 Descending Atlanta Center
Fri 05:20:40 PM 35.0731 -80.5925 83° East 415 478 15,900 -1,500 Descending Atlanta Center
Fri 05:20:58 PM 35.0761 -80.5467 85° East 422 486 15,400 -1,770 Descending Atlanta Center
Fri 05:21:41 PM 35.0858 -80.4472 83° East 408 470 14,100 -1,800 Descending Atlanta Center
Fri 05:21:58 PM 35.0867 -80.4117 88° East 417 480 13,600 -1,770 Descending Atlanta Center
Fri 05:22:42 PM 35.0964 -80.3122 83° East 391 450 12,300 -1,700 Descending Atlanta Center
Fri 05:22:58 PM 35.0994 -80.2817 83° East 402 463 11,900 -1,737 Descending Atlanta Center
Fri 05:23:58 PM 35.1083 -80.1669 85° East 368 423 10,100 -1,279 Descending Atlanta Center
Fri 05:25:00 PM 35.1169 -80.0628 84° East 317 365 9,300 -537 Descending Washington Center
Fri 05:26:01 PM 35.1264 -79.9478 84° East 316 364 9,000 -101 Descending Washington Center
Fri 05:27:58 PM 35.1378 -79.7339 86° East 323 372 9,000  Level Atlanta Center

Login

Don't have an account? Register now (free) for customized features, flight alerts, and more!